Weather at Always Airfield

Public forecast

Using degrees Celsius for public forecast. Weather courtesy of forecast.io.

Closest aviation weather report (METAR) to Always Airfield

Closest report is Udine-Rivolto Air Base, 13.3 nm (24.7 km) SW.

2024/05/25 21:55 (retrieved 1 hour ago)

LIPI 252155Z 32004KT CAVOK 17/14 Q1016 RMK BKN FEW130 BKN200 VIS MIN 9999 WIND THR06 36003KT WIND THR24 36004KT BLU

Closest aviation forecast (TAF) to Always Airfield

Closest forecast is Trieste–Friuli Venezia Giulia Airport, 20.1 nm (37.2 km) SSE.

2024/05/25 18:21 (retrieved 5 hours ago)

TAF LIPQ 251700Z 2518/2618 VRB05KT 9999 SCT040 TEMPO 2612/2616 SHRA